Time;durP1;ratioP1;P1;durP2;ratioP2;P2;SDS_P1;SDS_P2;PMS_P1;PMS_P2;Temp;Humidity;BMP_temperature;BMP_pressure;BME280_temperature;BME280_humidity;BME280_pressure;Samples;Min_cycle;Max_cycle;Signal;HPM_P1;HPM_P2
2022/04/12 00:02:14;;;;;;;15.50;11.05;;;6.20;99.90;;;;;;5290736;22;20342;-86
2022/04/12 00:04:52;;;;;;;16.17;10.13;;;6.10;99.90;;;;;;5422291;22;20019;31
2022/04/12 00:07:18;;;;;;;13.82;10.10;;;6.00;99.90;;;;;;5011057;28;20681;-77
2022/04/12 00:09:44;;;;;;;16.08;10.40;;;6.00;99.90;;;;;;5031808;28;20041;-77
2022/04/12 00:12:10;;;;;;;19.10;10.77;;;5.90;99.90;;;;;;5015870;28;20040;-77
2022/04/12 00:14:36;;;;;;;18.75;11.80;;;5.90;99.90;;;;;;5014932;28;20079;-77
2022/04/12 00:19:46;;;;;;;17.30;11.10;;;5.80;99.90;;;;;;5018166;28;20182;-77
2022/04/12 00:22:12;;;;;;;17.58;11.23;;;5.80;99.90;;;;;;5014675;28;20051;-81
2022/04/12 00:24:38;;;;;;;14.25;10.27;;;5.80;99.90;;;;;;5015616;28;20037;-78
2022/04/12 00:27:03;;;;;;;15.48;10.95;;;5.80;99.90;;;;;;5014773;28;20041;-83
2022/04/12 00:29:29;;;;;;;12.57;10.32;;;5.70;99.90;;;;;;5016487;28;20033;-77
2022/04/12 00:31:55;;;;;;;15.07;10.82;;;5.70;99.90;;;;;;5002856;28;20172;-77
2022/04/12 00:34:20;;;;;;;14.65;11.10;;;5.60;99.90;;;;;;4998417;28;20179;-80
2022/04/12 00:36:46;;;;;;;15.65;10.93;;;5.60;99.90;;;;;;5018670;28;20041;-77
2022/04/12 00:39:12;;;;;;;17.55;11.55;;;5.60;99.90;;;;;;5035761;28;20048;-79
2022/04/12 00:41:37;;;;;;;18.75;12.13;;;5.60;99.90;;;;;;5003813;28;20044;-77
2022/04/12 00:44:03;;;;;;;18.45;11.70;;;5.60;99.90;;;;;;5035615;28;20045;-83
2022/04/12 00:46:29;;;;;;;15.60;10.70;;;5.60;99.90;;;;;;5014011;28;20515;-77
2022/04/12 00:48:55;;;;;;;16.95;11.50;;;5.50;99.90;;;;;;5000419;28;20040;-76
2022/04/12 00:51:21;;;;;;;18.00;12.15;;;5.50;99.90;;;;;;5019172;28;20080;-77
2022/04/12 00:53:46;;;;;;;18.65;12.13;;;5.50;99.90;;;;;;5035835;28;20376;-77
2022/04/12 00:56:13;;;;;;;15.85;11.65;;;5.40;99.90;;;;;;5035641;28;20120;-81
2022/04/12 00:58:40;;;;;;;18.35;12.02;;;5.40;99.90;;;;;;5035481;28;20385;-77
2022/04/12 01:01:05;;;;;;;16.45;12.05;;;5.30;99.90;;;;;;5027934;28;20045;-82
2022/04/12 01:03:31;;;;;;;18.00;12.57;;;5.30;99.90;;;;;;5016978;28;20471;-78
2022/04/12 01:05:57;;;;;;;17.13;11.80;;;5.20;99.90;;;;;;5017141;28;20053;-77
2022/04/12 01:08:23;;;;;;;17.52;11.98;;;5.20;99.90;;;;;;5016663;28;20486;-78
2022/04/12 01:10:49;;;;;;;16.45;12.45;;;5.10;99.90;;;;;;5013708;28;20063;-77
2022/04/12 01:13:15;;;;;;;20.27;12.90;;;5.00;99.90;;;;;;5018232;28;20120;-77
2022/04/12 01:15:42;;;;;;;20.15;13.30;;;5.00;99.90;;;;;;5019037;28;20117;-77
2022/04/12 01:18:09;;;;;;;18.98;12.40;;;4.90;99.90;;;;;;5029082;28;20437;-83
2022/04/12 01:20:35;;;;;;;17.95;12.55;;;4.90;99.90;;;;;;5007368;28;20043;-77
2022/04/12 01:23:12;;;;;;;20.10;12.80;;;4.90;99.90;;;;;;5018228;28;20504;-78
2022/04/12 01:25:38;;;;;;;18.30;12.90;;;4.90;99.90;;;;;;5016466;28;20072;-78
2022/04/12 01:28:08;;;;;;;20.42;12.82;;;4.80;99.90;;;;;;5018314;28;20132;-77
2022/04/12 01:30:34;;;;;;;20.88;12.40;;;4.80;99.90;;;;;;5031705;28;20053;-77
2022/04/12 01:33:00;;;;;;;20.20;13.32;;;4.80;99.90;;;;;;5017866;28;20497;-77
2022/04/12 01:35:26;;;;;;;23.05;13.23;;;4.70;99.90;;;;;;5017846;28;20041;-77
2022/04/12 01:37:51;;;;;;;19.40;13.32;;;4.70;99.90;;;;;;5034862;28;20048;-77
2022/04/12 01:40:17;;;;;;;20.38;13.43;;;4.70;99.90;;;;;;5017913;28;20044;-76
2022/04/12 01:42:43;;;;;;;20.40;13.55;;;4.60;99.90;;;;;;5019194;28;20686;-77
2022/04/12 01:45:09;;;;;;;20.73;13.68;;;4.50;99.90;;;;;;5018096;28;20037;-82
2022/04/12 01:47:35;;;;;;;24.13;14.25;;;4.40;99.90;;;;;;5016709;28;20037;-77
2022/04/12 01:50:02;;;;;;;20.25;13.32;;;4.40;99.90;;;;;;5034935;28;20039;-78
2022/04/12 01:52:28;;;;;;;19.17;13.77;;;4.30;99.90;;;;;;5033147;28;20052;-77
2022/04/12 01:54:53;;;;;;;22.45;12.88;;;4.30;99.90;;;;;;4992534;28;20389;-80
2022/04/12 01:57:19;;;;;;;19.00;12.80;;;4.20;99.90;;;;;;5017326;28;20045;-77
2022/04/12 01:59:45;;;;;;;21.08;14.38;;;4.20;99.90;;;;;;5034725;28;20585;-78
2022/04/12 02:02:11;;;;;;;21.42;13.10;;;4.20;99.90;;;;;;5005561;28;20040;-83
2022/04/12 02:04:36;;;;;;;22.73;13.73;;;4.30;99.90;;;;;;5034484;28;20045;-76
2022/04/12 02:07:02;;;;;;;20.27;13.00;;;4.20;99.90;;;;;;5033317;28;20064;-77
2022/04/12 02:09:28;;;;;;;19.33;13.60;;;4.20;99.90;;;;;;5049318;28;20071;-77
2022/04/12 02:11:55;;;;;;;23.17;14.57;;;4.20;99.90;;;;;;5018180;28;20053;-82
2022/04/12 02:14:21;;;;;;;20.42;14.23;;;4.20;99.90;;;;;;5033414;28;20394;-78
2022/04/12 02:16:47;;;;;;;21.50;14.90;;;4.10;99.90;;;;;;5034668;28;20056;-78
2022/04/12 02:19:13;;;;;;;22.92;14.15;;;4.10;99.90;;;;;;5018481;28;20048;-85
2022/04/12 02:21:39;;;;;;;21.95;13.65;;;4.10;99.90;;;;;;5006204;28;20037;-79
2022/04/12 02:24:05;;;;;;;22.92;14.35;;;4.00;99.90;;;;;;5023870;28;20037;-79
2022/04/12 02:26:31;;;;;;;22.92;14.25;;;4.00;99.90;;;;;;5017049;28;20421;-78
2022/04/12 02:28:56;;;;;;;20.38;13.52;;;3.90;99.90;;;;;;4998523;28;20041;-79
2022/04/12 02:31:22;;;;;;;18.13;13.55;;;3.90;99.90;;;;;;5006485;28;20515;-79
2022/04/12 02:33:48;;;;;;;22.33;14.50;;;3.90;99.90;;;;;;4999743;28;20045;-80
2022/04/12 02:36:13;;;;;;;22.98;15.05;;;3.90;99.90;;;;;;5018052;28;20068;-82
2022/04/12 02:38:39;;;;;;;21.65;14.18;;;3.80;99.90;;;;;;5017321;28;20041;-77
2022/04/12 02:41:05;;;;;;;20.65;14.15;;;3.80;99.90;;;;;;5000983;28;20414;-77
2022/04/12 02:43:31;;;;;;;21.13;13.98;;;3.90;99.90;;;;;;5033758;28;20029;-77
2022/04/12 02:45:58;;;;;;;18.63;13.82;;;3.70;99.90;;;;;;4992181;28;20068;-77
2022/04/12 02:48:24;;;;;;;21.23;14.73;;;3.70;99.90;;;;;;5028122;28;20045;-79
2022/04/12 02:50:50;;;;;;;22.08;14.38;;;3.60;99.90;;;;;;5034088;28;20071;-77
2022/04/12 02:53:15;;;;;;;21.95;14.20;;;3.60;99.90;;;;;;5032316;28;20549;-84
2022/04/12 02:55:41;;;;;;;19.73;14.75;;;3.60;99.90;;;;;;5033633;28;20041;-77
2022/04/12 02:58:07;;;;;;;22.15;14.48;;;3.60;99.90;;;;;;5016160;28;20068;-77
2022/04/12 03:00:33;;;;;;;25.15;14.13;;;3.60;99.90;;;;;;5016834;28;20041;-77
2022/04/12 03:02:58;;;;;;;19.42;13.40;;;3.60;99.90;;;;;;5016734;28;20044;-77
2022/04/12 03:05:24;;;;;;;21.17;14.38;;;3.70;99.90;;;;;;5032383;28;20060;-77
2022/04/12 03:07:50;;;;;;;22.13;14.65;;;3.70;99.90;;;;;;5000449;28;20051;-76
2022/04/12 03:10:15;;;;;;;22.08;14.27;;;3.60;99.90;;;;;;5016339;28;20055;-85
2022/04/12 03:12:41;;;;;;;17.98;13.38;;;3.60;99.90;;;;;;5032407;28;20032;-78
2022/04/12 03:15:08;;;;;;;20.60;14.43;;;3.60;99.90;;;;;;5015722;28;20489;-77
2022/04/12 03:17:34;;;;;;;23.23;15.10;;;3.60;99.90;;;;;;5015937;28;20506;-80
2022/04/12 03:20:00;;;;;;;23.17;14.95;;;3.60;99.90;;;;;;5032754;28;20037;-77
2022/04/12 03:22:25;;;;;;;21.88;14.23;;;3.50;99.90;;;;;;4983774;28;20044;-77
2022/04/12 03:24:51;;;;;;;23.08;14.07;;;3.50;99.90;;;;;;5015374;28;20049;-77
2022/04/12 03:27:17;;;;;;;20.33;13.25;;;3.50;99.90;;;;;;5014330;28;20053;-84
2022/04/12 03:29:43;;;;;;;26.08;14.82;;;3.60;99.90;;;;;;4999836;28;20393;-77
2022/04/12 03:32:09;;;;;;;20.55;14.13;;;3.70;99.90;;;;;;5015975;28;20154;-77
2022/04/12 03:34:36;;;;;;;21.52;14.25;;;3.70;99.90;;;;;;5031358;28;20526;-77
2022/04/12 03:37:02;;;;;;;23.88;13.80;;;3.60;99.90;;;;;;5016355;28;20032;-77
2022/04/12 03:39:28;;;;;;;20.83;14.20;;;3.70;99.90;;;;;;5014812;28;20125;-78
2022/04/12 03:41:54;;;;;;;20.80;14.40;;;3.70;99.90;;;;;;5015815;28;20045;-81
2022/04/12 03:44:20;;;;;;;24.73;15.27;;;3.70;99.90;;;;;;5014776;28;20055;-84
2022/04/12 03:46:45;;;;;;;20.70;14.88;;;3.70;99.90;;;;;;4999420;28;20091;-77
2022/04/12 03:49:11;;;;;;;21.35;13.82;;;3.80;99.90;;;;;;5001163;28;20374;-79
2022/04/12 03:51:37;;;;;;;23.13;14.20;;;3.80;99.90;;;;;;5048641;28;20067;-77
2022/04/12 03:54:04;;;;;;;20.27;13.95;;;3.80;99.90;;;;;;5016100;28;20127;-78
2022/04/12 03:56:30;;;;;;;22.40;15.00;;;3.90;99.90;;;;;;5032139;28;20112;-77
2022/04/12 03:58:59;;;;;;;20.67;13.63;;;3.80;99.90;;;;;;5016050;28;20127;-78
2022/04/12 04:01:25;;;;;;;21.60;14.35;;;4.00;99.90;;;;;;5021248;28;20094;-78
2022/04/12 04:03:51;;;;;;;19.42;13.80;;;3.90;99.90;;;;;;5000384;28;20033;-77
2022/04/12 04:06:17;;;;;;;23.05;15.13;;;3.90;99.90;;;;;;5015487;28;20130;-77
2022/04/12 04:08:42;;;;;;;21.33;13.98;;;3.90;99.90;;;;;;4982700;28;20568;-78
2022/04/12 04:11:08;;;;;;;21.70;14.80;;;4.00;99.90;;;;;;5014769;28;20385;-77
2022/04/12 04:13:36;;;;;;;21.70;14.05;;;4.00;99.90;;;;;;5015446;28;20079;-80
2022/04/12 04:16:05;;;;;;;20.92;14.35;;;4.00;99.90;;;;;;5032404;28;20185;-80
2022/04/12 04:18:32;;;;;;;20.33;14.50;;;4.00;99.90;;;;;;5013092;28;20051;-79
2022/04/12 04:20:58;;;;;;;21.45;13.93;;;3.90;99.90;;;;;;5017868;28;20047;-79
2022/04/12 04:23:23;;;;;;;21.73;14.20;;;3.90;99.90;;;;;;5021494;28;20037;-84
2022/04/12 04:25:49;;;;;;;20.05;13.85;;;3.90;99.90;;;;;;4996250;28;20042;-78
2022/04/12 04:28:21;;;;;;;25.98;14.88;;;3.90;99.90;;;;;;5015432;28;20048;-79
2022/04/12 04:30:50;;;;;;;19.58;14.35;;;3.90;99.90;;;;;;5030726;28;20127;-78
2022/04/12 04:33:17;;;;;;;21.63;14.38;;;3.90;99.90;;;;;;5011839;28;20084;-78
2022/04/12 04:35:44;;;;;;;22.67;14.30;;;3.80;99.90;;;;;;5030348;28;20045;-78
2022/04/12 04:38:10;;;;;;;18.38;13.57;;;3.70;99.90;;;;;;5015511;28;20033;-78
2022/04/12 04:40:35;;;;;;;22.90;14.30;;;3.70;99.90;;;;;;5015515;28;20093;-79
2022/04/12 04:43:02;;;;;;;23.90;14.55;;;3.70;99.90;;;;;;5031415;28;20459;-80
2022/04/12 04:45:29;;;;;;;21.60;14.07;;;3.60;99.90;;;;;;5011632;28;20049;-78
2022/04/12 04:47:58;;;;;;;20.33;13.98;;;3.60;99.90;;;;;;5029606;28;20094;-80
2022/04/12 04:50:26;;;;;;;20.10;14.10;;;3.60;99.90;;;;;;5015356;28;20466;-84
2022/04/12 04:52:52;;;;;;;21.77;14.40;;;3.50;99.90;;;;;;5032307;28;20060;-78
2022/04/12 04:55:18;;;;;;;18.63;13.95;;;3.60;99.90;;;;;;5022518;28;20468;-78
2022/04/12 04:57:45;;;;;;;20.73;15.07;;;3.50;99.90;;;;;;5031533;28;20402;-78
2022/04/12 05:00:17;;;;;;;24.40;15.07;;;3.40;99.90;;;;;;5030415;28;20075;-76
2022/04/12 05:02:44;;;;;;;24.90;15.32;;;3.40;99.90;;;;;;5007679;28;20049;-78
2022/04/12 05:05:10;;;;;;;21.20;14.10;;;3.40;99.90;;;;;;4995104;28;20052;-79
2022/04/12 05:07:41;;;;;;;21.10;14.55;;;3.40;99.90;;;;;;5028296;28;20486;-79
2022/04/12 05:10:08;;;;;;;20.55;14.15;;;3.40;99.90;;;;;;4996548;28;20140;-79
2022/04/12 05:12:34;;;;;;;23.73;14.50;;;3.40;99.90;;;;;;5028599;28;20117;-82
2022/04/12 05:14:59;;;;;;;22.88;14.48;;;3.40;99.90;;;;;;4996879;28;20080;-79
2022/04/12 05:17:28;;;;;;;21.95;14.82;;;3.50;99.90;;;;;;5012579;28;20068;-79
2022/04/12 05:19:58;;;;;;;22.38;14.45;;;3.40;99.90;;;;;;5029579;28;20050;-81
2022/04/12 05:22:24;;;;;;;21.55;13.85;;;3.40;99.90;;;;;;5016459;28;20038;-79
2022/04/12 05:24:50;;;;;;;21.27;14.38;;;3.40;99.90;;;;;;5032651;28;20043;-78
2022/04/12 05:27:16;;;;;;;21.85;14.73;;;3.40;99.90;;;;;;5016342;28;20136;-78
2022/04/12 05:29:42;;;;;;;20.83;13.50;;;3.50;99.90;;;;;;5014578;28;20044;-79
2022/04/12 05:32:09;;;;;;;22.13;14.63;;;3.70;99.90;;;;;;5031874;28;20092;-79
2022/04/12 05:34:36;;;;;;;21.20;13.77;;;3.90;99.90;;;;;;5031568;28;20671;-84
2022/04/12 05:37:03;;;;;;;21.63;14.30;;;4.20;99.90;;;;;;5031383;28;20049;-79
2022/04/12 05:39:29;;;;;;;19.70;13.68;;;4.40;99.90;;;;;;5015092;28;20037;-86
2022/04/12 05:41:55;;;;;;;21.95;13.75;;;4.60;99.90;;;;;;5031855;28;20095;-83
2022/04/12 05:44:20;;;;;;;19.08;14.07;;;4.90;99.90;;;;;;4997601;28;20044;-80
2022/04/12 05:46:46;;;;;;;21.85;15.50;;;5.20;99.90;;;;;;5014933;28;20075;-80
2022/04/12 05:49:12;;;;;;;19.25;13.68;;;5.40;99.90;;;;;;4995161;28;20483;-80
2022/04/12 05:51:37;;;;;;;21.63;15.68;;;5.70;99.90;;;;;;5009988;28;20061;-86
2022/04/12 05:54:03;;;;;;;18.38;13.77;;;6.00;99.90;;;;;;4976366;28;20065;-83
2022/04/12 05:56:29;;;;;;;19.75;14.18;;;6.20;99.90;;;;;;4992724;28;20157;-83
2022/04/12 05:58:54;;;;;;;19.73;13.32;;;6.40;99.90;;;;;;5022496;28;20056;-87
2022/04/12 06:01:20;;;;;;;22.70;14.57;;;6.50;99.90;;;;;;4974470;28;20493;-83
2022/04/12 06:03:46;;;;;;;19.15;12.90;;;6.60;99.90;;;;;;5004980;28;20045;-85
2022/04/12 06:06:12;;;;;;;16.95;12.75;;;6.70;99.90;;;;;;4974523;28;20037;-84
2022/04/12 06:08:37;;;;;;;18.85;13.30;;;6.80;99.90;;;;;;5002815;28;20136;-79
2022/04/12 06:11:03;;;;;;;18.50;12.95;;;6.80;99.90;;;;;;5005453;28;20042;-77
2022/04/12 06:13:29;;;;;;;18.15;12.45;;;6.90;99.90;;;;;;5005779;28;20132;-79
2022/04/12 06:15:54;;;;;;;17.73;12.50;;;6.90;99.90;;;;;;5020246;28;20759;-79
2022/04/12 06:18:20;;;;;;;18.25;12.50;;;7.00;99.90;;;;;;5021265;28;20045;-78
2022/04/12 06:20:46;;;;;;;17.88;12.43;;;7.10;99.90;;;;;;4989047;28;20124;-77
2022/04/12 06:23:11;;;;;;;18.20;12.73;;;7.20;99.90;;;;;;5004525;28;20368;-78
2022/04/12 06:25:37;;;;;;;16.83;11.85;;;7.20;99.90;;;;;;4990001;28;20037;-77
2022/04/12 06:28:03;;;;;;;18.60;11.95;;;7.30;99.90;;;;;;4989192;28;20059;-81
2022/04/12 06:30:32;;;;;;;19.00;12.60;;;7.40;99.90;;;;;;4989454;28;20053;-78
2022/04/12 06:32:58;;;;;;;20.25;12.65;;;7.60;99.90;;;;;;5001813;28;20053;-78
2022/04/12 06:35:24;;;;;;;16.30;12.15;;;7.60;99.90;;;;;;5003302;28;20046;-77
2022/04/12 06:37:53;;;;;;;18.08;12.07;;;7.70;99.90;;;;;;5019937;28;20095;-80
2022/04/12 06:40:21;;;;;;;16.67;11.90;;;7.70;99.90;;;;;;4989540;28;20045;-81
2022/04/12 06:42:47;;;;;;;16.90;12.98;;;7.90;99.90;;;;;;4972387;28;20053;-79
2022/04/12 06:45:13;;;;;;;15.30;11.52;;;7.90;99.90;;;;;;4988815;28;20373;-79
2022/04/12 06:47:40;;;;;;;16.60;11.75;;;8.00;99.90;;;;;;4986625;28;20049;-77
2022/04/12 06:50:07;;;;;;;22.25;12.82;;;8.10;99.90;;;;;;5022097;28;20049;-80
2022/04/12 06:52:33;;;;;;;16.77;11.23;;;8.20;99.90;;;;;;5020274;28;20096;-84
2022/04/12 06:54:59;;;;;;;15.18;11.68;;;8.30;99.90;;;;;;5004019;28;20450;-77
2022/04/12 06:57:31;;;;;;;18.65;11.88;;;8.40;99.90;;;;;;5022097;28;20064;-80
2022/04/12 06:59:57;;;;;;;15.82;11.85;;;8.40;99.90;;;;;;5020842;28;20134;-78
2022/04/12 07:02:24;;;;;;;15.20;11.65;;;8.40;99.90;;;;;;5024166;28;21357;-80
2022/04/12 07:04:50;;;;;;;16.02;10.93;;;8.40;99.90;;;;;;5006631;28;20045;-79
2022/04/12 07:07:15;;;;;;;16.65;11.68;;;8.30;99.90;;;;;;4991481;28;20061;-80
2022/04/12 07:09:41;;;;;;;18.00;11.73;;;8.30;99.90;;;;;;4992700;28;20049;-79
2022/04/12 07:12:07;;;;;;;15.00;11.45;;;8.20;99.90;;;;;;5020990;28;20054;-79
2022/04/12 07:14:33;;;;;;;16.50;12.13;;;8.20;99.90;;;;;;5005567;28;20056;-80
2022/04/12 07:16:59;;;;;;;15.88;12.15;;;8.10;99.90;;;;;;5008312;28;20030;-80
2022/04/12 07:19:26;;;;;;;14.85;11.13;;;8.10;99.90;;;;;;4992100;28;20060;-79
2022/04/12 07:21:52;;;;;;;17.00;11.50;;;8.00;99.90;;;;;;5000742;28;20045;-80
2022/04/12 07:24:18;;;;;;;15.40;10.30;;;8.00;99.90;;;;;;4988625;28;20060;-80
2022/04/12 07:26:44;;;;;;;14.65;11.18;;;8.00;99.90;;;;;;5003729;28;20040;-82
2022/04/12 07:29:10;;;;;;;14.57;10.25;;;8.00;99.90;;;;;;5019487;28;20092;-79
2022/04/12 07:31:36;;;;;;;18.67;10.95;;;8.00;99.90;;;;;;5025175;28;20068;-85
2022/04/12 07:34:02;;;;;;;15.77;11.23;;;8.10;99.90;;;;;;4992747;28;20060;-79
2022/04/12 07:36:28;;;;;;;14.48;10.77;;;8.10;99.90;;;;;;5023294;28;20041;-82
2022/04/12 07:38:54;;;;;;;15.32;11.27;;;8.20;99.90;;;;;;5007209;28;20531;-82
2022/04/12 07:41:20;;;;;;;15.50;10.93;;;8.30;99.90;;;;;;5022695;28;20064;-78
2022/04/12 07:43:47;;;;;;;15.68;10.60;;;8.40;99.90;;;;;;5008362;28;20053;-80
2022/04/12 07:46:13;;;;;;;15.50;11.00;;;8.50;99.90;;;;;;5009995;28;20486;-78
2022/04/12 07:48:43;;;;;;;16.08;10.73;;;8.60;99.90;;;;;;5025636;28;20049;-85
2022/04/12 07:51:10;;;;;;;14.23;9.90;;;8.70;99.90;;;;;;5025816;28;20490;-79
2022/04/12 07:53:37;;;;;;;15.35;10.88;;;8.80;99.90;;;;;;5007812;28;20057;-85
2022/04/12 07:56:03;;;;;;;13.00;9.75;;;8.90;99.90;;;;;;5006414;28;20057;-79
2022/04/12 07:58:29;;;;;;;14.52;10.20;;;9.00;99.90;;;;;;5006656;28;20049;-79
2022/04/12 08:00:54;;;;;;;14.63;10.18;;;9.10;99.90;;;;;;4992471;28;20723;-79
2022/04/12 08:03:21;;;;;;;13.48;9.65;;;9.30;99.90;;;;;;5006184;28;20544;-81
2022/04/12 08:05:47;;;;;;;15.57;10.00;;;9.30;99.90;;;;;;5023117;28;20087;-78
2022/04/12 08:08:13;;;;;;;13.32;9.52;;;9.50;99.90;;;;;;5006512;28;20102;-79
2022/04/12 08:10:39;;;;;;;14.98;9.98;;;9.60;99.90;;;;;;5044538;28;20437;-82
2022/04/12 08:13:05;;;;;;;18.63;9.50;;;9.70;99.90;;;;;;5027499;28;20148;-80
2022/04/12 08:15:30;;;;;;;11.90;9.23;;;9.80;99.90;;;;;;4993829;28;20049;-85
2022/04/12 08:17:56;;;;;;;12.13;8.68;;;10.00;99.90;;;;;;5021021;28;20441;-81
2022/04/12 08:20:22;;;;;;;14.02;9.02;;;10.00;99.90;;;;;;5025758;28;20053;-79
2022/04/12 08:22:48;;;;;;;12.65;9.43;;;10.20;99.90;;;;;;5012530;28;20127;-78
2022/04/12 08:25:14;;;;;;;11.07;8.60;;;10.30;99.90;;;;;;5026996;28;20559;-84
2022/04/12 08:27:40;;;;;;;12.10;8.88;;;10.50;99.90;;;;;;4995857;28;20128;-84
2022/04/12 08:30:07;;;;;;;15.30;8.98;;;10.70;99.90;;;;;;5043099;28;20533;-78
2022/04/12 08:32:36;;;;;;;12.70;9.00;;;10.90;99.90;;;;;;4991142;28;20040;-80
2022/04/12 08:35:03;;;;;;;12.15;8.77;;;11.00;99.90;;;;;;5010545;28;20076;-81
2022/04/12 08:37:29;;;;;;;13.77;9.27;;;11.20;99.90;;;;;;5006309;28;20063;-79
2022/04/12 08:39:54;;;;;;;12.63;8.48;;;11.30;99.90;;;;;;5025127;28;20037;-82
2022/04/12 08:42:21;;;;;;;15.90;8.63;;;11.40;99.90;;;;;;4976922;28;20479;-80
2022/04/12 08:44:48;;;;;;;15.43;8.98;;;11.50;99.90;;;;;;5010015;28;20490;-79
2022/04/12 08:47:17;;;;;;;12.45;8.05;;;11.60;99.90;;;;;;5026897;28;20045;-80
2022/04/12 08:49:43;;;;;;;11.82;8.75;;;11.70;99.90;;;;;;5024627;28;20049;-84
2022/04/12 08:52:11;;;;;;;12.00;8.95;;;11.90;99.90;;;;;;5028271;28;20120;-78
2022/04/12 08:54:42;;;;;;;13.57;9.20;;;12.10;99.90;;;;;;5011210;28;20047;-80
2022/04/12 08:57:10;;;;;;;12.30;8.73;;;12.30;99.90;;;;;;5024537;28;20759;-83
2022/04/12 08:59:48;;;;;;;12.55;8.13;;;12.50;99.90;;;;;;5017251;28;20482;-79
2022/04/12 09:02:17;;;;;;;13.77;8.98;;;12.80;99.90;;;;;;5025727;28;20053;-79
2022/04/12 09:04:43;;;;;;;12.80;9.05;;;13.00;99.90;;;;;;5010508;28;20098;-88
2022/04/12 09:07:10;;;;;;;14.02;9.02;;;13.20;99.90;;;;;;5011226;28;20449;-78
2022/04/12 09:09:38;;;;;;;11.20;7.70;;;13.40;99.90;;;;;;5026414;28;20168;-88
2022/04/12 09:12:12;;;;;;;12.27;8.77;;;13.70;99.90;;;;;;5025715;28;20117;-85
2022/04/12 09:14:56;;;;;;;10.73;8.80;;;13.90;99.90;;;;;;5007159;28;20523;-78
2022/04/12 09:17:36;;;;;;;13.00;8.57;;;14.30;99.10;;;;;;5008028;28;20053;-83
2022/04/12 09:20:11;;;;;;;12.57;8.98;;;14.50;95.40;;;;;;5007531;28;20041;-80
2022/04/12 09:22:37;;;;;;;15.70;8.73;;;14.80;97.10;;;;;;5007443;28;20052;-78
2022/04/12 09:25:06;;;;;;;14.00;8.60;;;15.00;97.00;;;;;;5008245;28;20046;-77
2022/04/12 09:27:39;;;;;;;11.30;8.38;;;15.70;95.20;;;;;;5025062;28;20294;-80
2022/04/12 09:30:08;;;;;;;13.57;9.02;;;16.70;91.80;;;;;;5023217;28;20053;-83
2022/04/12 09:32:38;;;;;;;11.57;9.10;;;17.70;83.50;;;;;;5026220;28;20176;-78
2022/04/12 09:35:05;;;;;;;12.77;8.43;;;18.40;75.60;;;;;;5042266;28;20045;-79
2022/04/12 09:37:36;;;;;;;12.30;8.63;;;18.90;74.90;;;;;;5014377;28;20037;-79
2022/04/12 09:40:02;;;;;;;12.48;8.23;;;19.30;72.50;;;;;;5009526;28;20119;-85
2022/04/12 09:43:00;;;;;;;12.13;9.30;;;19.30;67.30;;;;;;5010135;28;20406;-79
2022/04/12 09:45:32;;;;;;;10.23;8.45;;;19.30;63.50;;;;;;5027399;28;20037;-78
2022/04/12 09:48:04;;;;;;;12.35;8.80;;;19.50;65.60;;;;;;5022108;28;20446;-83
2022/04/12 09:50:32;;;;;;;10.20;8.25;;;19.60;63.60;;;;;;5006813;28;20068;-82
2022/04/12 09:53:06;;;;;;;10.98;8.95;;;19.80;65.50;;;;;;4992736;28;20069;-83
2022/04/12 09:55:41;;;;;;;11.20;8.18;;;19.90;62.10;;;;;;5006398;28;20054;-83
2022/04/12 09:58:09;;;;;;;11.88;8.43;;;20.00;61.20;;;;;;4991774;28;20045;-80
2022/04/12 10:00:38;;;;;;;10.00;8.50;;;20.40;62.00;;;;;;4989724;28;20037;-81
2022/04/12 10:03:08;;;;;;;9.95;8.18;;;20.80;59.30;;;;;;5021427;28;20041;-78
2022/04/12 10:05:35;;;;;;;9.35;8.23;;;21.00;59.50;;;;;;5035899;28;20046;-78
2022/04/12 10:08:03;;;;;;;13.40;8.60;;;21.30;58.60;;;;;;5019036;28;20053;-79
2022/04/12 10:10:30;;;;;;;9.55;7.60;;;21.50;55.50;;;;;;5037931;28;20049;-80
2022/04/12 10:12:57;;;;;;;10.45;7.97;;;22.00;55.00;;;;;;5003158;28;20503;-79
2022/04/12 10:15:28;;;;;;;10.23;7.90;;;22.50;52.30;;;;;;5004792;28;20057;-78
2022/04/12 10:17:55;;;;;;;9.70;8.30;;;23.00;51.20;;;;;;5002675;28;20102;-80
2022/04/12 10:20:21;;;;;;;8.93;8.02;;;23.20;50.00;;;;;;4999972;28;20195;-80
2022/04/12 10:22:48;;;;;;;10.27;8.35;;;23.10;49.20;;;;;;4987232;28;20057;-84
2022/04/12 10:25:24;;;;;;;8.75;7.85;;;22.90;48.30;;;;;;5005766;28;20085;-78
2022/04/12 10:27:55;;;;;;;9.00;7.47;;;22.90;48.20;;;;;;5004447;28;20050;-83
2022/04/12 10:30:26;;;;;;;9.90;7.97;;;23.20;48.40;;;;;;5020585;28;20302;-81
2022/04/12 10:33:03;;;;;;;10.57;7.85;;;23.70;48.00;;;;;;5020700;28;20050;-78
2022/04/12 10:35:54;;;;;;;15.13;8.60;;;24.10;46.10;;;;;;5022464;28;20057;-78
2022/04/12 10:38:22;;;;;;;10.95;7.43;;;24.70;44.00;;;;;;4990718;28;20502;-78
2022/04/12 10:40:53;;;;;;;9.75;8.10;;;25.10;45.60;;;;;;5021937;28;20516;-86
2022/04/12 10:43:30;;;;;;;9.23;7.57;;;25.30;43.30;;;;;;5021066;28;20053;-81
2022/04/12 10:45:57;;;;;;;9.27;6.75;;;25.40;41.70;;;;;;5006179;28;20551;-83
2022/04/12 10:48:25;;;;;;;9.13;7.35;;;25.40;42.20;;;;;;4989033;28;20049;-78
2022/04/12 10:50:58;;;;;;;10.02;7.70;;;25.70;41.60;;;;;;4988988;28;20850;-78
2022/04/12 10:53:36;;;;;;;8.90;7.45;;;25.80;40.80;;;;;;5021090;28;20034;-78
2022/04/12 10:56:23;;;;;;;8.50;7.57;;;26.00;39.80;;;;;;5019983;28;20050;-81
2022/04/12 10:58:49;;;;;;;8.98;7.10;;;25.90;40.00;;;;;;5006211;28;20072;-84
2022/04/12 11:01:35;;;;;;;8.40;6.75;;;25.90;40.90;;;;;;5020718;28;20056;-78
2022/04/12 11:04:04;;;;;;;8.40;6.85;;;26.10;39.00;;;;;;5004799;28;20078;-81
2022/04/12 11:06:34;;;;;;;9.90;7.82;;;26.50;40.50;;;;;;5008404;28;20188;-82
2022/04/12 11:09:06;;;;;;;9.82;7.50;;;26.60;39.60;;;;;;5026082;28;20063;-81
2022/04/12 11:11:44;;;;;;;9.77;7.25;;;26.80;38.30;;;;;;5048692;28;20070;-78
2022/04/12 11:14:28;;;;;;;10.52;7.32;;;27.00;37.90;;;;;;5011315;28;20056;-83
2022/04/12 11:17:00;;;;;;;8.10;7.30;;;27.20;38.70;;;;;;5003725;28;20041;-78
2022/04/12 11:19:25;;;;;;;7.80;6.90;;;27.70;37.40;;;;;;5032803;28;20045;-78
2022/04/12 11:21:55;;;;;;;9.32;7.03;;;28.00;37.60;;;;;;5016790;28;20094;-79
2022/04/12 11:24:22;;;;;;;9.70;7.30;;;28.20;37.00;;;;;;5032509;28;20478;-78
2022/04/12 11:27:01;;;;;;;8.43;6.95;;;28.50;36.60;;;;;;5032857;28;20040;-83
2022/04/12 11:29:28;;;;;;;10.30;7.43;;;28.70;35.50;;;;;;5019210;28;20089;-78
2022/04/12 11:31:55;;;;;;;8.82;6.20;;;28.60;35.40;;;;;;5032008;28;20052;-79
2022/04/12 11:34:22;;;;;;;9.23;6.75;;;28.60;34.00;;;;;;5000303;28;20037;-78
2022/04/12 11:36:50;;;;;;;9.98;6.97;;;28.50;34.10;;;;;;5016084;28;20057;-81
2022/04/12 11:39:20;;;;;;;12.32;7.40;;;28.40;34.10;;;;;;5014960;28;20077;-79
2022/04/12 11:41:47;;;;;;;9.10;7.10;;;28.30;33.60;;;;;;5031612;28;20045;-78
2022/04/12 11:44:13;;;;;;;8.68;7.03;;;28.00;34.10;;;;;;5016512;28;20127;-79
2022/04/12 11:46:39;;;;;;;8.68;7.18;;;27.50;34.00;;;;;;4983820;28;20538;-79
2022/04/12 11:49:13;;;;;;;8.95;7.57;;;27.10;34.00;;;;;;5006378;28;20044;-78
2022/04/12 11:51:40;;;;;;;8.70;7.30;;;26.90;34.90;;;;;;5025585;28;20067;-78
2022/04/12 11:54:28;;;;;;;9.30;6.78;;;26.90;36.20;;;;;;5010532;28;20072;-78
2022/04/12 11:57:04;;;;;;;7.78;6.90;;;26.70;34.20;;;;;;5028725;28;20044;-79
2022/04/12 11:59:34;;;;;;;8.35;7.20;;;26.70;36.00;;;;;;5001460;28;20045;-78
2022/04/12 12:02:02;;;;;;;9.18;7.63;;;26.70;35.70;;;;;;5007622;28;20398;-79
2022/04/12 12:04:30;;;;;;;12.63;7.43;;;26.90;36.20;;;;;;5000053;28;20068;-81
2022/04/12 12:07:01;;;;;;;9.75;7.70;;;26.90;35.50;;;;;;4997863;28;20107;-78
2022/04/12 12:09:27;;;;;;;9.18;7.10;;;26.70;35.00;;;;;;5029843;28;20043;-79
2022/04/12 12:11:57;;;;;;;9.50;7.07;;;26.40;35.80;;;;;;5004499;28;20056;-84
2022/04/12 12:14:23;;;;;;;11.20;7.35;;;26.20;36.90;;;;;;5021680;28;20576;-78
2022/04/12 12:17:05;;;;;;;10.68;8.18;;;26.00;37.90;;;;;;5007590;28;20193;-78
2022/04/12 12:19:33;;;;;;;11.00;8.32;;;25.70;37.20;;;;;;4981610;28;20041;-78
2022/04/12 12:22:01;;;;;;;10.32;8.23;;;25.70;37.20;;;;;;5030771;28;20053;-78
2022/04/12 12:24:27;;;;;;;10.45;7.68;;;25.90;36.90;;;;;;4978082;28;20043;-78
2022/04/12 12:26:57;;;;;;;11.25;6.85;;;26.20;36.90;;;;;;4988900;28;20044;-83
2022/04/12 12:29:24;;;;;;;9.30;7.45;;;26.90;36.40;;;;;;5016177;28;20049;-78
2022/04/12 12:31:54;;;;;;;10.35;7.68;;;27.60;34.90;;;;;;4996098;28;20052;-78
2022/04/12 12:34:31;;;;;;;11.00;7.53;;;27.90;34.50;;;;;;5031758;28;20529;-78
2022/04/12 12:36:57;;;;;;;10.50;7.70;;;28.00;33.90;;;;;;4999704;28;20590;-81
2022/04/12 12:39:26;;;;;;;11.13;8.38;;;28.10;33.60;;;;;;4994309;28;20044;-78
2022/04/12 12:41:56;;;;;;;10.80;8.27;;;28.00;33.10;;;;;;5016467;28;20051;-77
2022/04/12 12:44:23;;;;;;;14.68;8.70;;;28.00;34.10;;;;;;4980267;28;20045;-82